Terminal Aerodrome Forecast
Issued by NWS

Home | Current Version | Previous Version | Text Only | Print | Product List | Glossary On
Versions: 1 2 3 4 5 6 7 8 9 10 11 12 13 14 15 16
000
FTUS42 KTAE 300900 AAB
TAFDHN
TAF AMD
KDHN 300944Z 3010/3106 11004KT 2SM BR BKN002
      TEMPO 3010/3012 1/4SM FG VV002
     FM301300 20003KT P6SM FEW030
     FM301500 20006KT P6SM VCTS SCT035CB BKN050
      TEMPO 3019/3023 5SM TSRA BKN035CB
     FM310000 22005KT P6SM BKN250=

USA.gov is the U.S. government's official web portal to all federal, state and local government web resources and services.